x

Halifax Harbour (44258) Wave Buoy

8:00am - Tue 21st Oct 2014 All times are EDT. -4 hours from GMT.

  • Sig Wave height 3.6ft
  • Peak Period 8s
  • Wind
    9mph, 11mph gusts
  • Air Temp 52°f
  • Sea Pressure 1020.4mb
  • Halifax Harbour
  • Halifax Harbour

More Historic Weather Station data

Upgrade to MSW Pro to gain access to the past 30 days of data for over 8000 Wavebouys and Weather Stations around the globe.

Join Pro

Comparision Forecast

View Surf forecast
   
Tue 10/21 8:00am 3.5ft 8s 9 11 mph 1020.4mb 52f
7:00am 3.5ft 9s 9 11 mph 1019.6mb 51f
6:00am 4ft 10s 9 13 mph 1019.1mb 50f
5:00am 3.5ft 9s 11 13 mph 1018.7mb 50f
4:00am 4ft 9s 13 16 mph 1018.1mb 50f
3:00am 4ft 9s 13 16 mph 1017.7mb 49f
2:00am 4ft 10s 16 18 mph 1017.1mb 49f
1:00am 4.5ft 9s 16 20 mph 1016.8mb 49f
12:00am 4.5ft 10s 16 20 mph 1016mb 48f
Mon 10/20 11:00pm 5ft 10s 18 20 mph 1015.7mb 48f
10:00pm 5.5ft 10s 20 25 mph 1015.3mb 48f
9:00pm 6ft 10s 18 22 mph 1014.7mb 48f
8:00pm 6ft 10s 18 22 mph 1014mb 48f
7:00pm 6ft 11s 18 20 mph 1013.6mb 48f
6:00pm 7ft 11s 18 22 mph 1012.8mb 48f
5:00pm 7ft 10s 22 27 mph 1011.7mb 49f
4:00pm 6.5ft 10s 22 31 mph 1011mb 49f
3:00pm 6.5ft 11s 25 31 mph 1010.4mb 49f
2:00pm 5ft 10s 22 27 mph 1010mb 49f
1:00pm 5ft 10s 22 29 mph 1009.8mb 47f
12:00pm 4.5ft 10s 25 31 mph 1009.8mb 47f
11:00am 5ft 10s 22 31 mph 1009.8mb 46f
10:00am 4.5ft 10s 25 31 mph 1009.2mb 46f
9:00am 4.5ft 11s 27 36 mph 1008.2mb 45f
8:00am 4.5ft 11s 22 27 mph 1007.4mb 44f
7:00am 4.5ft 10s 22 29 mph 1006.1mb 44f
6:00am 5ft 11s 22 31 mph 1004.6mb 44f
5:00am 5ft 11s 25 31 mph 1003.3mb 44f
4:00am 5.5ft 11s 25 31 mph 1001.5mb 46f
3:00am  -   -  27
mph
- -
2:00am  -   -  27
mph
999.4mb 48f
1:00am 6.5ft 12s 27 34 mph 999.3mb 49f
Sun 10/19 10:00pm 7ft 13s 2 4 mph 999.6mb 56f
9:00pm 8ft 12s 4 7 mph 1001.2mb 56f
8:00pm 8ft 13s 11 13 mph 1002.4mb 58f
7:00pm 8ft 12s 11 13 mph 1002.7mb 59f
6:00pm 9ft 11s 11 13 mph 1003.4mb 59f
5:00pm 9ft 14s 9 11 mph 1003.2mb 59f
4:00pm 9ft 13s 13
mph
1003mb 59f
3:00pm 10ft 14s 13 16 mph 1003.3mb 59f
2:00pm 10ft 14s 16 20 mph 1003.6mb 59f
1:00pm 10.5ft 14s 16 18 mph 1002.8mb 59f
12:00pm 12ft 14s 18 22 mph 1003.4mb 59f
11:00am 11ft 15s 18 22 mph 1003.5mb 60f
10:00am 11ft 15s 20 25 mph 1002.8mb 60f
9:00am 12ft 15s 16 20 mph 1002.5mb 60f
8:00am 10ft 16s 13 16 mph 1002.1mb 60f
7:00am 9.5ft 16s 16 20 mph 1001.3mb 61f
6:00am 8ft 16s 13 18 mph 1001mb 60f
5:00am 7.5ft 16s 9 11 mph 1000.9mb 59f
4:00am 8ft 16s 13 18 mph 1000.6mb 58f
3:00am 8ft 16s 13 18 mph 1000.4mb 58f
2:00am 7ft 15s 11 16 mph 1000.2mb 58f
1:00am 7ft 14s 13 16 mph 1000mb 58f
12:00am 7.5ft 15s 11 16 mph 1000.2mb 58f
Sat 10/18 11:00pm 7ft 9s 9 13 mph 1000.2mb 58f
10:00pm 7ft 16s 7 9 mph 1000.5mb 59f
9:00pm 7ft 9s 4 7 mph 1000.7mb 59f
8:00pm 6.5ft 8s 2 4 mph 1001.3mb 59f
7:00pm 7ft 10s 2
mph
1001.3mb 59f
6:00pm 7.5ft 10s 4 7 mph 1002mb 59f
5:00pm 7ft 9s 4 7 mph 1002.2mb 60f
4:00pm 7ft 10s 4
mph
1002.8mb 60f
3:00pm 7.5ft 10s 7 9 mph 1003.3mb 60f
2:00pm 7ft 10s 7 11 mph 1003.7mb 59f
1:00pm 7.5ft 10s 7 11 mph 1004.5mb 59f
12:00pm 7.5ft 10s 4 7 mph 1005.4mb 60f
11:00am 8.5ft 9s 9 11 mph 1006.1mb 60f
10:00am 9ft 10s 7 9 mph 1006.6mb 60f
9:00am 9ft 10s 4 7 mph 1007.3mb 60f
8:00am 9ft 10s 7 9 mph 1007.6mb 60f
7:00am 10ft 10s 9 13 mph 1007.4mb 60f
6:00am 9ft 10s 9 11 mph 1007.2mb 59f
5:00am 9.5ft 10s 9 11 mph 1007.4mb 59f
4:00am 9ft 10s 9 11 mph 1007.6mb 59f
3:00am 9.5ft 10s 13 16 mph 1007.6mb 60f
2:00am 10ft 10s 9 13 mph 1007.8mb 60f
1:00am 9ft 10s 9 11 mph 1008.1mb 60f
12:00am 10ft 10s 13 16 mph 1008.2mb 60f
Fri 10/17 11:00pm 10ft 10s 13 16 mph 1008.4mb 60f
10:00pm 10ft 11s 11 16 mph 1008.3mb 60f
9:00pm 10ft 10s 13 18 mph 1008.3mb 60f
8:00pm 10ft 10s 11 13 mph 1008.3mb 60f
7:00pm 9ft 10s 18 20 mph 1007.7mb 60f
6:00pm 9ft 8s 18 25 mph 1007.4mb 60f
5:00pm 8.5ft 8s 20 25 mph 1006.6mb 60f
4:00pm 8.5ft 7s 20 27 mph 1005.9mb 60f
3:00pm 9ft 7s 22 27 mph 1005.4mb 60f
2:00pm 8ft 7s 31 38 mph 1003.8mb 64f